To NAV CANADA Home Page Login to a new session Search on AWWS site Feedback and Comments Disclaimer Vers la page française équivalente Tips FAQ What's new on the site To the Forecasts and Observations / NOTAM section To "File a Flight Plan" website Publications and other links Update of the User's profile FIC Telephone Numbers My Weather Data Folder Route Weather Data Regional Weather Data Local Weather Data To the Forecasts and Observations / NOTAM section
Request Generated 02/27/2015 at 21:06:45 UTC . Weather information available at that time is displayed.

METAR/TAF

LA GRANDE-4/QC    (show WxCam)

METAR CYAH 272100Z AUTO 26007KT 4SM HZ BKN021 BKN026 OVC036 M22/M27
A2986 RMK SLP153=
SPECI CYAH 272059Z AUTO 26007KT 4SM HZ SCT021 BKN026 OVC036 M22/M27
A2986 RMK SLP153=
SPECI CYAH 272058Z AUTO 25008KT 4SM HZ BKN024 OVC036 M22/M26 A2986
RMK SLP153=
SPECI CYAH 272046Z AUTO 26009KT 3SM HZ BKN025 OVC036 M22/M26 A2986
RMK SLP152=
SPECI CYAH 272042Z AUTO 25010KT 2 1/2SM HZ BKN025 OVC034 M22/M26
A2985 RMK SLP151=
SPECI CYAH 272037Z AUTO 25008KT 2SM HZ OVC025 M22/M26 A2985 RMK
SLP151=
SPECI CYAH 272005Z AUTO 24009KT 1 3/4SM HZ BKN021 OVC030 M22/M27
A2984 RMK SLP148=
METAR CYAH 272000Z AUTO 26008KT 1 1/4SM HZ BKN021 BKN026 OVC032
M22/M27 A2984 RMK SLP148=
SPECI CYAH 271956Z AUTO 26008KT 1 1/2SM HZ BKN021 OVC030 M23/M27
A2984 RMK SLP148=
SPECI CYAH 271953Z AUTO 26008KT 2SM HZ BKN021 OVC030 M23/M27 A2984
RMK SLP147=
SPECI CYAH 271951Z AUTO 26010KT 2 1/2SM HZ BKN024 OVC030 M23/M27
A2984 RMK SLP147=
SPECI CYAH 271950Z AUTO 26010KT 3SM HZ BKN024 OVC033 M23/M27 A2984
RMK SLP147=
SPECI CYAH 271943Z AUTO 25010KT 5SM HZ BKN026 OVC033 M22/M28 A2984
RMK SLP147=
SPECI CYAH 271916Z AUTO 25010KT 6SM HZ SCT020 BKN029 M23/M28 A2983
RMK SLP144=
SPECI CYAH 271913Z AUTO 24010KT 5SM HZ SCT022 BKN029 M23/M28 A2983
RMK SLP144=
SPECI CYAH 271910Z AUTO 25010KT 5SM HZ BKN022 BKN029 M23/M28 A2983
RMK SLP144=
SPECI CYAH 271909Z AUTO 25010KT 6SM HZ BKN022 BKN029 M23/M28 A2983
RMK SLP144=
METAR CYAH 271900Z AUTO 25011G16KT 7SM FEW020 BKN027 M23/M28 A2983
RMK SLP143=

TAF AMD CYAH 272006Z 2720/2722 24010KT P6SM OVC025 TEMPO 2720/2722
2SM -SN OVC020
RMK FCST BASED ON AUTO OBS. NXT FCST WILL BE ISSUED AT 281145Z=
Your time UTC time
Weather data provided by Environment Canada and NAV CANADA